createdAt,value
2023-04-03T00:03:35.870Z,15.45
2023-04-03T00:06:06.746Z,15.42
2023-04-03T00:08:37.224Z,15.41
2023-04-03T00:11:07.438Z,15.41
2023-04-03T00:13:35.719Z,15.40
2023-04-03T00:16:05.426Z,15.39
2023-04-03T00:18:33.557Z,15.38
2023-04-03T00:21:02.273Z,15.36
2023-04-03T00:23:30.773Z,15.34
2023-04-03T00:25:58.979Z,15.33
2023-04-03T00:28:28.401Z,15.31
2023-04-03T00:30:57.370Z,15.30
2023-04-03T00:33:26.584Z,15.28
2023-04-03T00:35:55.742Z,15.28
2023-04-03T00:38:24.430Z,15.28
2023-04-03T00:40:52.838Z,15.28
2023-04-03T00:43:25.664Z,15.29
2023-04-03T00:45:57.080Z,15.29
2023-04-03T00:48:37.454Z,15.29
2023-04-03T00:51:09.183Z,15.27
2023-04-03T00:53:58.166Z,15.25
2023-04-03T00:56:29.861Z,15.23
2023-04-03T00:59:06.223Z,15.22
2023-04-03T01:01:36.527Z,15.21
2023-04-03T01:04:06.189Z,15.19
2023-04-03T01:06:37.780Z,15.18
2023-04-03T01:09:07.332Z,15.16
2023-04-03T01:11:35.773Z,15.15
2023-04-03T01:14:04.083Z,15.13
2023-04-03T01:16:33.524Z,15.12
2023-04-03T01:19:03.048Z,15.10
2023-04-03T01:22:04.526Z,15.08
2023-04-03T01:24:34.347Z,15.05
2023-04-03T01:27:05.898Z,15.01
2023-04-03T01:29:34.951Z,14.98
2023-04-03T01:32:04.813Z,14.94
2023-04-03T01:34:33.337Z,14.91
2023-04-03T01:37:01.979Z,14.88
2023-04-03T01:39:30.615Z,14.85
2023-04-03T01:41:59.299Z,14.84
2023-04-03T01:44:28.424Z,14.81
2023-04-03T01:46:57.062Z,14.76
2023-04-03T01:49:25.452Z,14.70
2023-04-03T01:51:54.245Z,14.67
2023-04-03T01:54:22.341Z,14.63
2023-04-03T01:56:51.108Z,14.59
2023-04-03T01:59:19.952Z,14.57
2023-04-03T02:01:49.446Z,14.55
2023-04-03T02:04:18.000Z,14.53
2023-04-03T02:06:47.216Z,14.53
2023-04-03T02:09:16.132Z,14.53
2023-04-03T02:11:44.594Z,14.54
2023-04-03T02:14:13.249Z,14.53
2023-04-03T02:16:41.479Z,14.52
2023-04-03T02:19:10.036Z,14.50
2023-04-03T02:21:39.167Z,14.48
2023-04-03T02:24:08.009Z,14.46
2023-04-03T02:26:36.242Z,14.42
2023-04-03T02:29:04.512Z,14.40
2023-04-03T02:31:32.964Z,14.37
2023-04-03T02:34:02.965Z,14.36
2023-04-03T02:36:32.979Z,14.34
2023-04-03T02:39:01.284Z,14.31
2023-04-03T02:41:29.383Z,14.28
2023-04-03T02:43:57.728Z,14.26
2023-04-03T02:46:26.652Z,14.24
2023-04-03T02:48:55.644Z,14.22
2023-04-03T02:51:24.687Z,14.19
2023-04-03T02:53:53.349Z,14.17
2023-04-03T02:56:21.942Z,14.15
2023-04-03T02:58:51.372Z,14.13
2023-04-03T03:01:20.471Z,14.13
2023-04-03T03:03:48.834Z,14.11
2023-04-03T03:06:18.215Z,14.10
2023-04-03T03:08:47.020Z,14.09
2023-04-03T03:11:16.401Z,14.09
2023-04-03T03:13:45.832Z,14.08
2023-04-03T03:16:14.890Z,14.06
2023-04-03T03:18:43.613Z,14.04
2023-04-03T03:21:12.457Z,14.02
2023-04-03T03:23:40.927Z,14.00
2023-04-03T03:26:11.992Z,13.98
2023-04-03T03:28:40.919Z,13.95
2023-04-03T03:31:10.666Z,13.93
2023-04-03T03:33:39.701Z,13.92
2023-04-03T03:36:08.770Z,13.90
2023-04-03T03:38:38.933Z,13.88
2023-04-03T03:41:07.663Z,13.86
2023-04-03T03:43:36.545Z,13.84
2023-04-03T03:46:05.791Z,13.82
2023-04-03T03:48:34.147Z,13.79
2023-04-03T03:51:02.439Z,13.76
2023-04-03T03:53:32.324Z,13.73
2023-04-03T03:56:00.951Z,13.71
2023-04-03T03:58:29.101Z,13.70
2023-04-03T04:00:57.813Z,13.69
2023-04-03T04:03:27.440Z,13.68
2023-04-03T04:05:57.048Z,13.67
2023-04-03T04:08:25.963Z,13.66
2023-04-03T04:10:54.820Z,13.65
2023-04-03T04:13:23.921Z,13.64
2023-04-03T04:15:52.075Z,13.63
2023-04-03T04:18:20.169Z,13.63
2023-04-03T04:20:48.543Z,13.61
2023-04-03T04:23:18.851Z,13.61
2023-04-03T04:25:49.202Z,13.59
2023-04-03T04:28:17.781Z,13.58
2023-04-03T04:30:46.425Z,13.57
2023-04-03T04:33:14.684Z,13.56
2023-04-03T04:35:44.214Z,13.55
2023-04-03T04:38:14.806Z,13.54
2023-04-03T04:40:43.124Z,13.52
2023-04-03T04:43:11.823Z,13.51
2023-04-03T04:45:40.142Z,13.49
2023-04-03T04:48:09.534Z,13.48
2023-04-03T04:50:37.910Z,13.46
2023-04-03T04:53:06.073Z,13.44
2023-04-03T04:55:35.098Z,13.43
2023-04-03T04:58:03.434Z,13.40
2023-04-03T05:00:32.040Z,13.38
2023-04-03T05:03:00.540Z,13.36
2023-04-03T05:05:29.619Z,13.35
2023-04-03T05:07:57.830Z,13.32
2023-04-03T05:10:26.401Z,13.30
2023-04-03T05:12:54.703Z,13.27
2023-04-03T05:15:22.858Z,13.25
2023-04-03T05:17:51.209Z,13.23
2023-04-03T05:20:19.387Z,13.22
2023-04-03T05:22:47.676Z,13.21
2023-04-03T05:25:16.516Z,13.20
2023-04-03T05:27:45.313Z,13.19
2023-04-03T05:30:14.635Z,13.18
2023-04-03T05:32:43.389Z,13.17
2023-04-03T05:35:12.579Z,13.17
2023-04-03T05:37:41.464Z,13.16
2023-04-03T05:40:11.245Z,13.16
2023-04-03T05:42:39.754Z,13.15
2023-04-03T05:45:08.708Z,13.14
2023-04-03T05:47:37.200Z,13.15
2023-04-03T05:50:06.216Z,13.15
2023-04-03T05:52:41.406Z,13.14
2023-04-03T05:55:09.922Z,13.15
2023-04-03T05:57:38.277Z,13.16
2023-04-03T06:00:09.080Z,13.17
2023-04-03T06:02:37.674Z,13.18
2023-04-03T06:05:07.178Z,13.20
2023-04-03T06:07:35.951Z,13.22
2023-04-03T06:10:04.629Z,13.37
2023-04-03T06:12:35.360Z,13.92
2023-04-03T06:15:04.436Z,14.40
2023-04-03T06:17:32.650Z,14.54
2023-04-03T06:20:02.058Z,14.55
2023-04-03T06:22:30.632Z,14.53
2023-04-03T06:24:59.428Z,14.55
2023-04-03T06:27:27.642Z,14.79
2023-04-03T06:29:56.331Z,15.31
2023-04-03T06:32:24.786Z,16.07
2023-04-03T06:34:53.086Z,17.19
2023-04-03T06:37:24.385Z,18.63
2023-04-03T06:39:53.169Z,20.22
2023-04-03T06:42:21.458Z,21.50
2023-04-03T06:44:51.429Z,22.33
2023-04-03T06:47:20.264Z,22.98
2023-04-03T06:49:48.738Z,23.91
2023-04-03T06:52:16.999Z,25.09
2023-04-03T06:54:45.151Z,26.35
2023-04-03T06:57:13.305Z,27.60
2023-04-03T06:59:41.895Z,28.78
2023-04-03T07:02:12.829Z,29.82
2023-04-03T07:04:41.259Z,30.83
2023-04-03T07:07:09.583Z,31.75
2023-04-03T07:09:37.831Z,32.50
2023-04-03T07:12:07.101Z,33.07
2023-04-03T07:14:35.514Z,33.29
2023-04-03T07:17:03.711Z,33.18
2023-04-03T07:19:31.993Z,32.97
2023-04-03T07:22:00.377Z,32.93
2023-04-03T07:24:28.596Z,33.27
2023-04-03T07:26:56.937Z,33.91
2023-04-03T07:29:25.416Z,34.69
2023-04-03T07:31:54.154Z,35.52
2023-04-03T07:34:22.764Z,36.34
2023-04-03T07:36:51.253Z,37.13
2023-04-03T07:39:19.414Z,37.86
2023-04-03T07:41:48.525Z,38.50
2023-04-03T07:44:16.768Z,38.95
2023-04-03T07:46:45.258Z,39.12
2023-04-03T07:49:13.814Z,39.21
2023-04-03T07:51:42.163Z,39.34
2023-04-03T07:54:10.273Z,39.47
2023-04-03T07:56:38.371Z,39.69
2023-04-03T07:59:06.755Z,39.92
2023-04-03T08:01:34.962Z,40.13
2023-04-03T08:04:03.255Z,40.40
2023-04-03T08:06:44.803Z,40.70
2023-04-03T08:09:16.741Z,41.01
2023-04-03T08:11:45.216Z,41.31
2023-04-03T08:14:14.405Z,41.53
2023-04-03T08:16:44.293Z,41.64
2023-04-03T08:19:22.416Z,41.61
2023-04-03T08:21:55.535Z,41.44
2023-04-03T08:24:24.456Z,41.34
2023-04-03T08:26:52.669Z,41.28
2023-04-03T08:29:20.928Z,41.21
2023-04-03T08:31:50.970Z,41.10
2023-04-03T08:34:21.225Z,40.98
2023-04-03T08:36:49.437Z,40.82
2023-04-03T08:39:18.088Z,40.69
2023-04-03T08:41:47.620Z,40.66
2023-04-03T08:44:48.334Z,40.50
2023-04-03T08:47:29.812Z,40.30
2023-04-03T08:50:05.441Z,40.32
2023-04-03T08:52:50.141Z,40.27
2023-04-03T08:55:33.106Z,39.98
2023-04-03T08:58:04.126Z,39.61
2023-04-03T09:01:00.418Z,39.21
2023-04-03T09:03:32.554Z,38.73
2023-04-03T09:06:31.722Z,38.07
2023-04-03T09:09:17.865Z,37.27
2023-04-03T09:12:11.108Z,36.44
2023-04-03T09:15:10.711Z,35.39
2023-04-03T09:18:00.298Z,34.30
2023-04-03T09:20:32.036Z,33.85
2023-04-03T09:23:00.264Z,33.75
2023-04-03T09:25:32.940Z,33.73
2023-04-03T09:28:02.349Z,34.01
2023-04-03T09:30:31.179Z,33.99
2023-04-03T09:32:59.592Z,33.87
2023-04-03T09:35:44.931Z,33.90
2023-04-03T09:38:23.529Z,34.20
2023-04-03T09:41:07.639Z,34.49
2023-04-03T09:43:38.860Z,34.72
2023-04-03T09:46:33.113Z,34.96
2023-04-03T09:49:12.079Z,35.17
2023-04-03T09:51:41.814Z,35.47
2023-04-03T09:54:35.179Z,35.57
2023-04-03T09:57:09.432Z,35.52
2023-04-03T09:59:44.776Z,35.63
2023-04-03T10:02:13.372Z,35.64
2023-04-03T10:04:43.056Z,35.62
2023-04-03T10:07:31.692Z,35.38
2023-04-03T10:10:03.779Z,35.25
2023-04-03T10:12:32.237Z,35.21
2023-04-03T10:15:02.106Z,35.17
2023-04-03T10:17:52.619Z,35.14
2023-04-03T10:20:40.961Z,35.07
2023-04-03T10:23:24.794Z,34.84
2023-04-03T10:26:25.084Z,34.56
2023-04-03T10:29:15.463Z,34.18
2023-04-03T10:31:55.284Z,33.97
2023-04-03T10:34:33.386Z,34.12
2023-04-03T10:37:19.528Z,34.10
2023-04-03T10:40:23.104Z,33.68
2023-04-03T10:43:05.909Z,33.55
2023-04-03T10:46:06.265Z,33.61
2023-04-03T10:48:50.268Z,33.25
2023-04-03T10:51:41.033Z,33.24
2023-04-03T10:54:20.165Z,33.01
2023-04-03T10:57:12.565Z,32.57
2023-04-03T11:00:04.860Z,32.29
2023-04-03T11:02:39.589Z,32.19
2023-04-03T11:05:32.820Z,32.08
2023-04-03T11:08:09.684Z,32.01
2023-04-03T11:10:45.782Z,31.99
2023-04-03T11:13:52.375Z,31.97
2023-04-03T11:16:26.314Z,32.15
2023-04-03T11:19:05.093Z,32.40
2023-04-03T11:21:40.706Z,32.68
2023-04-03T11:24:23.704Z,32.52
2023-04-03T11:26:54.923Z,32.10
2023-04-03T11:29:35.475Z,31.66
2023-04-03T11:32:39.650Z,31.34
2023-04-03T11:35:10.182Z,31.17
2023-04-03T11:37:47.110Z,30.98
2023-04-03T11:40:26.369Z,30.34
2023-04-03T11:43:05.549Z,29.70
2023-04-03T11:45:51.579Z,29.18
2023-04-03T11:48:24.773Z,28.41
2023-04-03T11:50:54.428Z,27.59
2023-04-03T11:53:33.271Z,26.75
2023-04-03T11:56:25.855Z,26.09
2023-04-03T11:59:23.268Z,25.27
2023-04-03T12:01:59.424Z,24.71
2023-04-03T12:04:29.041Z,24.53
2023-04-03T12:07:19.600Z,24.35
2023-04-03T12:09:47.769Z,24.12
2023-04-03T12:12:37.047Z,24.04
2023-04-03T12:15:22.728Z,24.00
2023-04-03T12:17:52.169Z,24.03
2023-04-03T12:20:59.397Z,24.17
2023-04-03T12:23:36.407Z,24.41
2023-04-03T12:26:32.387Z,24.43
2023-04-03T12:29:25.351Z,24.53
2023-04-03T12:32:25.726Z,24.49
2023-04-03T12:35:03.505Z,24.16
2023-04-03T12:37:32.152Z,23.79
2023-04-03T12:40:26.395Z,23.66
2023-04-03T12:43:49.490Z,23.52
2023-04-03T12:46:22.198Z,23.27
2023-04-03T12:48:59.375Z,22.82
2023-04-03T12:51:48.012Z,22.22
2023-04-03T12:54:24.600Z,21.82
2023-04-03T12:56:53.413Z,21.47
2023-04-03T12:59:24.951Z,21.31
2023-04-03T13:01:59.522Z,21.28
2023-04-03T13:04:29.668Z,21.11
2023-04-03T13:06:59.585Z,20.93
2023-04-03T13:09:32.781Z,20.77
2023-04-03T13:12:10.504Z,20.57
2023-04-03T13:14:38.989Z,20.50
2023-04-03T13:17:18.370Z,20.45
2023-04-03T13:19:47.135Z,20.33
2023-04-03T13:22:18.518Z,20.27
2023-04-03T13:24:50.691Z,20.25
2023-04-03T13:27:19.900Z,20.20
2023-04-03T13:29:54.996Z,20.14
2023-04-03T13:32:27.954Z,20.03
2023-04-03T13:35:08.098Z,19.92
2023-04-03T13:37:40.744Z,19.76
2023-04-03T13:40:13.495Z,19.62
2023-04-03T13:42:43.184Z,19.52
2023-04-03T13:45:14.279Z,19.44
2023-04-03T13:47:46.482Z,19.36
2023-04-03T13:50:24.966Z,19.35
2023-04-03T13:53:03.264Z,19.46
2023-04-03T13:55:38.562Z,19.55
2023-04-03T13:58:13.201Z,19.62
2023-04-03T14:00:57.861Z,19.60
2023-04-03T14:03:46.973Z,19.49
2023-04-03T14:06:17.810Z,19.34
2023-04-03T14:08:47.429Z,19.18
2023-04-03T14:11:30.916Z,19.07
2023-04-03T14:14:03.824Z,18.97
2023-04-03T14:16:38.584Z,18.84
2023-04-03T14:19:07.055Z,18.78
2023-04-03T14:21:35.546Z,18.85
2023-04-03T14:24:03.932Z,18.97
2023-04-03T14:26:32.596Z,19.01
2023-04-03T14:29:01.077Z,19.06
2023-04-03T14:31:30.484Z,19.18
2023-04-03T14:33:59.192Z,19.36
2023-04-03T14:36:29.669Z,19.41
2023-04-03T14:38:59.081Z,19.40
2023-04-03T14:41:28.407Z,19.45
2023-04-03T14:43:56.903Z,19.56
2023-04-03T14:46:45.533Z,19.67
2023-04-03T14:49:26.282Z,19.77
2023-04-03T14:51:55.308Z,19.74
2023-04-03T14:54:24.457Z,19.80
2023-04-03T14:56:54.040Z,19.94
2023-04-03T14:59:23.231Z,19.98
2023-04-03T15:01:51.538Z,19.95
2023-04-03T15:04:22.159Z,19.94
2023-04-03T15:06:53.009Z,19.90
2023-04-03T15:09:24.529Z,19.88
2023-04-03T15:11:55.738Z,19.86
2023-04-03T15:14:36.396Z,19.79
2023-04-03T15:17:08.147Z,19.73
2023-04-03T15:19:40.744Z,19.77
2023-04-03T15:22:15.531Z,19.83
2023-04-03T15:24:44.946Z,19.81
2023-04-03T15:27:15.226Z,19.74
2023-04-03T15:29:45.273Z,19.66
2023-04-03T15:32:14.404Z,19.59
2023-04-03T15:34:42.672Z,19.56
2023-04-03T15:37:10.896Z,19.57
2023-04-03T15:39:39.330Z,19.58
2023-04-03T15:42:07.573Z,19.60
2023-04-03T15:44:36.509Z,19.63
2023-04-03T15:47:05.705Z,19.59
2023-04-03T15:49:34.904Z,19.47
2023-04-03T15:52:03.892Z,19.30
2023-04-03T15:54:33.805Z,19.09
2023-04-03T15:57:02.272Z,18.90
2023-04-03T15:59:30.935Z,18.81
2023-04-03T16:02:01.799Z,18.78
2023-04-03T16:04:33.563Z,18.84
2023-04-03T16:07:03.685Z,18.92
2023-04-03T16:09:34.203Z,18.95
2023-04-03T16:12:02.869Z,18.90
2023-04-03T16:14:31.169Z,18.88
2023-04-03T16:17:01.423Z,18.87
2023-04-03T16:19:30.768Z,18.80
2023-04-03T16:21:59.027Z,18.71
2023-04-03T16:24:27.350Z,18.64
2023-04-03T16:26:55.482Z,18.58
2023-04-03T16:29:23.600Z,18.57
2023-04-03T16:31:52.482Z,18.64
2023-04-03T16:34:20.729Z,18.70
2023-04-03T16:36:49.895Z,18.69
2023-04-03T16:39:18.472Z,18.64
2023-04-03T16:41:47.003Z,18.67
2023-04-03T16:44:15.207Z,18.74
2023-04-03T16:46:44.467Z,18.84
2023-04-03T16:49:13.681Z,18.91
2023-04-03T16:51:41.805Z,18.96
2023-04-03T16:54:10.543Z,18.96
2023-04-03T16:56:38.645Z,18.90
2023-04-03T16:59:07.204Z,18.82
2023-04-03T17:01:35.550Z,18.86
2023-04-03T17:04:07.047Z,18.83
2023-04-03T17:06:35.674Z,18.68
2023-04-03T17:09:04.004Z,18.56
2023-04-03T17:11:32.844Z,18.42
2023-04-03T17:14:01.009Z,18.30
2023-04-03T17:16:30.890Z,18.13
2023-04-03T17:18:59.490Z,17.85
2023-04-03T17:21:27.957Z,17.63
2023-04-03T17:23:59.946Z,17.44
2023-04-03T17:26:28.747Z,17.32
2023-04-03T17:28:56.909Z,17.24
2023-04-03T17:31:25.111Z,17.21
2023-04-03T17:33:53.573Z,17.19
2023-04-03T17:36:21.973Z,17.16
2023-04-03T17:38:53.379Z,17.12
2023-04-03T17:41:22.278Z,17.07
2023-04-03T17:43:50.885Z,17.01
2023-04-03T17:46:19.310Z,16.94
2023-04-03T17:48:47.534Z,16.89
2023-04-03T17:51:20.099Z,16.87
2023-04-03T17:53:49.411Z,16.88
2023-04-03T17:56:20.245Z,16.86
2023-04-03T17:58:49.031Z,16.84
2023-04-03T18:01:23.755Z,16.84
2023-04-03T18:03:54.703Z,16.85
2023-04-03T18:06:28.102Z,16.86
2023-04-03T18:09:03.705Z,16.88
2023-04-03T18:11:33.152Z,16.88
2023-04-03T18:14:04.078Z,16.89
2023-04-03T18:16:32.413Z,16.91
2023-04-03T18:19:12.016Z,16.92
2023-04-03T18:21:49.887Z,16.92
2023-04-03T18:24:20.997Z,16.88
2023-04-03T18:26:55.910Z,16.83
2023-04-03T18:29:24.638Z,16.71
2023-04-03T18:31:57.153Z,16.60
2023-04-03T18:34:25.597Z,16.49
2023-04-03T18:36:53.778Z,16.40
2023-04-03T18:39:23.992Z,16.34
2023-04-03T18:41:53.760Z,16.32
2023-04-03T18:44:25.105Z,16.32
2023-04-03T18:46:53.943Z,16.31
2023-04-03T18:49:22.197Z,16.29
2023-04-03T18:51:50.492Z,16.27
2023-04-03T18:54:18.919Z,16.26
2023-04-03T18:56:47.658Z,16.24
2023-04-03T18:59:15.824Z,16.21
2023-04-03T19:01:44.320Z,16.19
2023-04-03T19:04:14.734Z,16.18
2023-04-03T19:06:43.032Z,16.17
2023-04-03T19:09:11.431Z,16.16
2023-04-03T19:11:39.577Z,16.14
2023-04-03T19:14:15.846Z,16.13
2023-04-03T19:16:45.370Z,16.11
2023-04-03T19:19:13.895Z,16.11
2023-04-03T19:21:42.216Z,16.11
2023-04-03T19:24:13.090Z,16.12
2023-04-03T19:26:42.715Z,16.11
2023-04-03T19:29:11.801Z,16.10
2023-04-03T19:31:41.046Z,16.11
2023-04-03T19:34:09.145Z,16.11
2023-04-03T19:36:37.531Z,16.12
2023-04-03T19:39:06.387Z,16.12
2023-04-03T19:41:36.389Z,16.13
2023-04-03T19:44:06.529Z,16.14
2023-04-03T19:46:36.540Z,16.15
2023-04-03T19:49:05.213Z,16.16
2023-04-03T19:51:33.778Z,16.17
2023-04-03T19:54:02.234Z,16.19
2023-04-03T19:56:30.378Z,16.21
2023-04-03T19:58:58.742Z,16.22
2023-04-03T20:01:27.077Z,16.22
2023-04-03T20:03:55.562Z,16.23
2023-04-03T20:06:24.173Z,16.22
2023-04-03T20:08:52.795Z,16.22
2023-04-03T20:11:21.091Z,16.22
2023-04-03T20:13:51.030Z,16.22
2023-04-03T20:16:23.062Z,16.23
2023-04-03T20:18:56.467Z,16.23
2023-04-03T20:21:32.513Z,16.24
2023-04-03T20:24:03.867Z,16.23
2023-04-03T20:26:34.063Z,16.23
2023-04-03T20:29:02.560Z,16.23
2023-04-03T20:31:33.031Z,16.24
2023-04-03T20:34:01.564Z,16.25
2023-04-03T20:36:29.807Z,16.25
2023-04-03T20:38:58.279Z,16.25
2023-04-03T20:41:26.762Z,16.25
2023-04-03T20:43:55.077Z,16.24
2023-04-03T20:46:23.457Z,16.24
2023-04-03T20:48:51.545Z,16.24
2023-04-03T20:51:20.587Z,16.23
2023-04-03T20:53:49.523Z,16.22
2023-04-03T20:56:18.345Z,16.20
2023-04-03T20:58:46.596Z,16.17
2023-04-03T21:01:23.595Z,16.16
2023-04-03T21:03:56.741Z,16.14
2023-04-03T21:07:02.810Z,16.13
2023-04-03T21:10:08.899Z,16.13
2023-04-03T21:13:15.570Z,16.12
2023-04-03T21:15:46.666Z,16.11
2023-04-03T21:18:48.404Z,16.09
2023-04-03T21:21:24.734Z,16.08
2023-04-03T21:23:54.731Z,16.06
2023-04-03T21:26:27.010Z,16.05
2023-04-03T21:28:55.411Z,16.03
2023-04-03T21:31:24.453Z,16.00
2023-04-03T21:33:52.702Z,15.99
2023-04-03T21:36:21.055Z,15.98
2023-04-03T21:38:49.555Z,15.96
2023-04-03T21:41:18.246Z,15.95
2023-04-03T21:43:46.543Z,15.93
2023-04-03T21:46:15.011Z,15.91
2023-04-03T21:48:43.243Z,15.89
2023-04-03T21:51:11.419Z,15.87
2023-04-03T21:53:39.676Z,15.85
2023-04-03T21:56:08.021Z,15.83
2023-04-03T21:58:36.558Z,15.82
2023-04-03T22:01:13.208Z,15.79
2023-04-03T22:03:43.317Z,15.76
2023-04-03T22:06:15.109Z,15.74
2023-04-03T22:08:46.454Z,15.71
2023-04-03T22:11:16.082Z,15.69
2023-04-03T22:13:45.391Z,15.66
2023-04-03T22:16:13.642Z,15.63
2023-04-03T22:18:42.350Z,15.59
2023-04-03T22:21:10.716Z,15.56
2023-04-03T22:23:38.947Z,15.53
2023-04-03T22:26:09.543Z,15.50
2023-04-03T22:28:41.879Z,15.47
2023-04-03T22:31:10.414Z,15.45
2023-04-03T22:33:40.202Z,15.42
2023-04-03T22:36:10.597Z,15.38
2023-04-03T22:38:39.953Z,15.36
2023-04-03T22:41:08.294Z,15.33
2023-04-03T22:43:38.233Z,15.29
2023-04-03T22:46:08.831Z,15.26
2023-04-03T22:48:38.020Z,15.24
2023-04-03T22:51:06.839Z,15.20
2023-04-03T22:53:35.670Z,15.17
2023-04-03T22:56:07.062Z,15.13
2023-04-03T22:58:35.177Z,15.10
2023-04-03T23:01:14.525Z,15.07
2023-04-03T23:03:43.293Z,15.03
2023-04-03T23:06:11.432Z,15.00
2023-04-03T23:08:39.697Z,14.96
2023-04-03T23:11:08.681Z,14.92
2023-04-03T23:13:37.797Z,14.90
2023-04-03T23:16:07.017Z,14.86
2023-04-03T23:18:35.355Z,14.83
2023-04-03T23:21:03.910Z,14.80
2023-04-03T23:23:32.922Z,14.77
2023-04-03T23:26:02.003Z,14.74
2023-04-03T23:28:31.093Z,14.70
2023-04-03T23:31:00.764Z,14.68
2023-04-03T23:33:30.692Z,14.66
2023-04-03T23:36:01.165Z,14.64
2023-04-03T23:38:29.604Z,14.62
2023-04-03T23:40:57.832Z,14.61
2023-04-03T23:43:26.282Z,14.58
2023-04-03T23:45:55.211Z,14.55
2023-04-03T23:48:23.380Z,14.53
2023-04-03T23:50:51.676Z,14.51
2023-04-03T23:53:19.751Z,14.48
2023-04-03T23:55:48.124Z,14.46
2023-04-03T23:58:16.419Z,14.44
